Time;durP1;ratioP1;P1;durP2;ratioP2;P2;SDS_P1;SDS_P2;PMS_P1;PMS_P2;Temp;Humidity;BMP_temperature;BMP_pressure;BME280_temperature;BME280_humidity;BME280_pressure;Samples;Min_cycle;Max_cycle;Signal;HPM_P1;HPM_P2
2023/03/23 00:00:13;;;;;;;2.03;1.33;;;14.40;99.90;;;;;;4985674;28;20027;-78
2023/03/23 00:02:40;;;;;;;3.80;1.38;;;14.30;99.90;;;;;;4989885;28;20018;-78
2023/03/23 00:05:07;;;;;;;2.72;1.10;;;14.30;99.90;;;;;;4987102;28;20058;-84
2023/03/23 00:07:34;;;;;;;6.95;2.88;;;14.30;99.90;;;;;;4986242;28;20030;-79
2023/03/23 00:10:02;;;;;;;3.88;1.98;;;14.30;99.90;;;;;;4990693;28;20455;-77
2023/03/23 00:12:33;;;;;;;4.65;1.55;;;14.30;99.90;;;;;;4985484;28;20042;-78
2023/03/23 00:15:12;;;;;;;1.23;0.77;;;14.30;99.90;;;;;;4983369;28;20041;-77
2023/03/23 00:17:43;;;;;;;1.77;1.17;;;14.30;99.90;;;;;;4988603;28;20025;-77
2023/03/23 00:20:12;;;;;;;5.32;1.52;;;14.30;99.90;;;;;;4984469;28;20041;-79
2023/03/23 00:22:40;;;;;;;3.88;1.30;;;14.30;99.90;;;;;;4969615;28;20412;-78
2023/03/23 00:25:08;;;;;;;1.83;0.90;;;14.20;99.90;;;;;;4983757;28;20030;-79
2023/03/23 00:27:34;;;;;;;2.00;0.80;;;14.20;99.90;;;;;;4987732;28;20050;-78
2023/03/23 00:30:01;;;;;;;1.85;0.93;;;14.20;99.90;;;;;;4969817;28;20038;-78
2023/03/23 00:32:28;;;;;;;1.73;0.90;;;14.20;99.90;;;;;;4983442;28;20037;-83
2023/03/23 00:34:55;;;;;;;1.10;0.93;;;14.20;99.90;;;;;;4982160;28;20034;-78
2023/03/23 00:37:22;;;;;;;1.65;0.80;;;14.20;99.90;;;;;;4984186;28;20336;-76
2023/03/23 00:39:51;;;;;;;2.13;1.17;;;14.20;99.90;;;;;;4967494;28;20038;-77
2023/03/23 00:42:18;;;;;;;3.45;1.10;;;14.20;99.90;;;;;;4963916;28;20050;-78
2023/03/23 00:44:44;;;;;;;2.90;0.70;;;14.10;99.90;;;;;;4982633;28;20048;-77
2023/03/23 00:47:12;;;;;;;1.13;0.88;;;14.10;99.90;;;;;;4968876;28;20506;-78
2023/03/23 00:49:38;;;;;;;0.68;0.50;;;14.20;99.90;;;;;;4982703;28;20034;-77
2023/03/23 00:52:07;;;;;;;1.83;0.88;;;14.20;99.90;;;;;;4987122;28;20029;-77
2023/03/23 00:54:34;;;;;;;1.40;0.60;;;14.20;99.90;;;;;;4986310;28;20041;-77
2023/03/23 00:57:00;;;;;;;2.85;1.42;;;14.20;99.90;;;;;;4984231;28;20035;-77
2023/03/23 00:59:26;;;;;;;3.20;0.80;;;14.30;99.90;;;;;;4988583;28;20037;-83
2023/03/23 01:01:52;;;;;;;1.17;0.65;;;14.30;99.90;;;;;;4968898;28;20049;-75
2023/03/23 01:04:19;;;;;;;2.10;0.88;;;14.30;99.90;;;;;;4964967;28;20077;-76
2023/03/23 01:06:50;;;;;;;1.10;0.50;;;14.20;99.90;;;;;;4986868;28;20482;-76
2023/03/23 01:09:19;;;;;;;3.15;0.80;;;14.20;99.90;;;;;;4984048;28;20030;-76
2023/03/23 01:11:48;;;;;;;;;;;14.20;99.90;;;;;;4991933;28;20571;-75
2023/03/23 01:14:17;;;;;;;1.85;0.93;;;14.20;99.90;;;;;;4983991;28;19917;-77
2023/03/23 01:16:43;;;;;;;2.13;0.80;;;14.20;99.90;;;;;;4990251;28;20027;-75
2023/03/23 01:19:10;;;;;;;2.13;0.82;;;14.30;99.90;;;;;;4983329;28;20472;-76
2023/03/23 01:21:39;;;;;;;1.45;0.60;;;14.20;99.90;;;;;;4991508;28;20037;-77
2023/03/23 01:24:06;;;;;;;2.35;0.60;;;14.30;99.90;;;;;;4989126;28;20570;-76
2023/03/23 01:26:32;;;;;;;0.88;0.55;;;14.20;99.90;;;;;;4971238;28;20030;-80
2023/03/23 01:28:59;;;;;;;1.75;0.70;;;14.20;99.90;;;;;;4984892;28;20038;-80
2023/03/23 01:31:26;;;;;;;1.52;0.70;;;14.20;99.90;;;;;;4981614;28;20047;-77
2023/03/23 01:33:55;;;;;;;1.40;0.70;;;14.20;99.90;;;;;;4987040;28;20105;-76
2023/03/23 01:36:26;;;;;;;1.77;0.75;;;14.20;99.90;;;;;;4985513;28;20038;-76
2023/03/23 01:38:53;;;;;;;3.58;1.00;;;14.20;99.90;;;;;;4966319;28;20038;-76
2023/03/23 01:41:21;;;;;;;3.13;0.77;;;14.10;99.90;;;;;;4982809;28;20051;-77
2023/03/23 01:43:54;;;;;;;2.60;0.85;;;14.10;99.90;;;;;;4983837;28;20619;-78
2023/03/23 01:46:22;;;;;;;1.48;0.77;;;14.10;99.90;;;;;;4981507;28;20050;-78
2023/03/23 01:48:50;;;;;;;2.50;0.60;;;14.00;99.90;;;;;;4984141;28;20033;-77
2023/03/23 01:51:18;;;;;;;1.38;0.57;;;14.00;99.90;;;;;;4982651;28;20046;-77
2023/03/23 01:54:02;;;;;;;0.85;0.50;;;14.00;99.90;;;;;;4985938;28;20448;-79
2023/03/23 01:56:37;;;;;;;2.30;0.70;;;14.10;99.90;;;;;;4968465;28;20448;-83
2023/03/23 01:59:05;;;;;;;1.83;0.60;;;14.10;99.90;;;;;;4986073;28;20045;-76
2023/03/23 02:01:36;;;;;;;2.45;0.60;;;14.00;99.90;;;;;;4980152;28;20042;-84
2023/03/23 02:04:04;;;;;;;1.52;0.60;;;14.00;99.90;;;;;;4984006;28;20065;-76
2023/03/23 02:06:30;;;;;;;2.70;0.88;;;13.90;99.90;;;;;;4983803;28;20050;-84
2023/03/23 02:09:13;;;;;;;1.10;0.63;;;13.90;99.90;;;;;;4981817;28;20042;-78
2023/03/23 02:11:40;;;;;;;3.97;0.60;;;13.90;99.90;;;;;;4967858;28;20494;-77
2023/03/23 02:14:08;;;;;;;1.63;0.85;;;13.90;99.90;;;;;;4951004;28;20399;-77
2023/03/23 02:16:53;;;;;;;1.05;0.82;;;13.90;99.90;;;;;;4983305;28;20045;-77
2023/03/23 02:20:00;;;;;;;2.05;0.60;;;13.90;99.90;;;;;;4983858;28;20035;-76
2023/03/23 02:22:52;;;;;;;1.65;0.70;;;13.90;99.90;;;;;;4985957;28;20042;-77
2023/03/23 02:25:41;;;;;;;2.47;0.70;;;13.90;99.90;;;;;;4979687;28;20054;-77
2023/03/23 02:28:20;;;;;;;1.33;0.60;;;13.90;99.90;;;;;;4951243;28;20042;-77
2023/03/23 02:31:28;;;;;;;3.15;0.50;;;13.90;99.90;;;;;;4978614;28;20039;-78
2023/03/23 02:34:15;;;;;;;1.05;0.57;;;13.80;99.90;;;;;;4902688;29;20040;-77
2023/03/23 02:36:50;;;;;;;3.47;1.02;;;13.80;99.90;;;;;;4925257;28;20052;-76
2023/03/23 02:39:29;;;;;;;1.17;0.70;;;13.80;99.90;;;;;;4910093;29;20056;-77
2023/03/23 02:42:06;;;;;;;3.38;0.80;;;13.80;99.90;;;;;;4908741;29;20054;-77
2023/03/23 02:44:36;;;;;;;1.23;0.70;;;13.70;99.90;;;;;;4917386;29;20055;-84
2023/03/23 02:47:05;;;;;;;1.52;0.88;;;13.70;99.90;;;;;;4907966;29;20040;-76
2023/03/23 02:49:36;;;;;;;1.52;0.60;;;13.70;99.90;;;;;;4922635;29;20425;-83
2023/03/23 02:52:12;;;;;;;2.85;0.75;;;13.70;99.90;;;;;;4906061;29;20547;-78
2023/03/23 02:54:40;;;;;;;1.90;0.90;;;13.70;99.90;;;;;;4921307;29;20044;-75
2023/03/23 02:57:07;;;;;;;1.42;0.75;;;13.60;99.90;;;;;;4926947;28;20397;-77
2023/03/23 02:59:33;;;;;;;3.72;1.35;;;13.50;99.90;;;;;;4906047;29;20275;-81
2023/03/23 03:02:24;;;;;;;3.00;0.82;;;13.50;99.90;;;;;;4913282;29;20195;-78
2023/03/23 03:04:56;;;;;;;3.47;0.93;;;13.50;99.90;;;;;;4923204;29;20047;-76
2023/03/23 03:07:29;;;;;;;3.30;0.82;;;13.50;99.90;;;;;;4945310;28;20054;-76
2023/03/23 03:10:09;;;;;;;2.95;1.00;;;13.50;99.90;;;;;;4956696;28;20034;-75
2023/03/23 03:12:51;;;;;;;2.03;0.88;;;13.50;99.90;;;;;;4976226;28;20525;-82
2023/03/23 03:15:26;;;;;;;1.23;0.75;;;13.40;99.90;;;;;;4987072;28;20517;-77
2023/03/23 03:18:03;;;;;;;2.53;1.05;;;13.50;99.90;;;;;;4979564;28;20487;-78
2023/03/23 03:20:32;;;;;;;1.65;0.77;;;13.40;99.90;;;;;;4993145;28;20039;-77
2023/03/23 03:23:00;;;;;;;2.60;0.50;;;13.40;99.90;;;;;;4971275;28;20034;-77
2023/03/23 03:25:28;;;;;;;2.72;0.75;;;13.40;99.90;;;;;;4983896;28;20408;-77
2023/03/23 03:27:56;;;;;;;3.38;0.90;;;13.40;99.90;;;;;;4986053;28;20039;-76
2023/03/23 03:30:37;;;;;;;2.45;0.95;;;13.50;99.90;;;;;;5004829;28;20043;-83
2023/03/23 03:33:04;;;;;;;1.60;0.80;;;13.40;99.90;;;;;;4998831;28;20050;-79
2023/03/23 03:35:31;;;;;;;1.67;0.73;;;13.50;99.90;;;;;;5003225;28;20543;-77
2023/03/23 03:38:05;;;;;;;2.38;0.98;;;13.60;99.90;;;;;;4982125;28;20518;-77
2023/03/23 03:40:32;;;;;;;2.83;0.90;;;13.60;99.90;;;;;;4998076;28;20053;-80
2023/03/23 03:42:58;;;;;;;2.55;1.27;;;13.70;99.90;;;;;;4979532;28;20046;-78
2023/03/23 03:45:26;;;;;;;4.07;1.20;;;13.80;99.90;;;;;;4996233;28;20492;-76
2023/03/23 03:47:52;;;;;;;3.72;1.73;;;13.80;99.90;;;;;;4984800;28;20038;-77
2023/03/23 03:50:18;;;;;;;4.95;1.92;;;13.80;99.90;;;;;;4984994;28;20038;-77
2023/03/23 03:52:44;;;;;;;3.17;1.80;;;13.90;99.90;;;;;;4987200;28;20046;-77
2023/03/23 03:55:11;;;;;;;3.88;1.73;;;14.10;99.90;;;;;;5003419;28;20485;-77
2023/03/23 03:57:41;;;;;;;5.32;1.77;;;14.10;99.90;;;;;;4984869;28;20038;-77
2023/03/23 04:00:16;;;;;;;1.17;0.70;;;14.20;99.90;;;;;;4994149;28;20072;-78
2023/03/23 04:02:50;;;;;;;2.55;1.02;;;14.30;99.90;;;;;;4984068;28;20033;-77
2023/03/23 04:05:17;;;;;;;2.35;1.33;;;14.40;99.90;;;;;;4997646;28;20047;-76
2023/03/23 04:07:49;;;;;;;2.50;1.20;;;14.50;99.90;;;;;;4999771;28;20038;-80
2023/03/23 04:10:19;;;;;;;2.78;1.52;;;14.50;99.90;;;;;;4999137;28;20404;-79
2023/03/23 04:12:46;;;;;;;2.35;1.13;;;14.50;99.90;;;;;;4983902;28;20034;-78
2023/03/23 04:15:40;;;;;;;3.30;1.17;;;14.40;99.90;;;;;;4978888;28;20053;-83
2023/03/23 04:18:06;;;;;;;2.85;1.25;;;14.40;99.90;;;;;;4986102;28;20034;-77
2023/03/23 04:20:34;;;;;;;2.00;1.02;;;14.40;99.90;;;;;;5002794;28;20065;-80
2023/03/23 04:23:01;;;;;;;1.23;0.80;;;14.40;99.90;;;;;;4983671;28;20041;-76
2023/03/23 04:25:32;;;;;;;3.20;1.33;;;14.40;99.90;;;;;;4984049;28;20403;-81
2023/03/23 04:28:00;;;;;;;2.50;0.93;;;14.30;99.90;;;;;;4998349;28;20054;-77
2023/03/23 04:30:31;;;;;;;4.15;2.00;;;14.20;99.90;;;;;;4981241;28;20038;-77
2023/03/23 04:33:03;;;;;;;2.60;1.38;;;14.20;99.90;;;;;;5000922;28;20396;-77
2023/03/23 04:35:30;;;;;;;3.45;1.40;;;14.20;99.90;;;;;;4985923;28;20042;-78
2023/03/23 04:38:23;;;;;;;3.85;1.58;;;14.20;99.90;;;;;;4987658;28;20042;-76
2023/03/23 04:40:55;;;;;;;2.55;1.13;;;14.20;99.90;;;;;;4984818;28;20043;-80
2023/03/23 04:43:41;;;;;;;3.55;1.20;;;14.10;99.90;;;;;;4987046;28;20048;-84
2023/03/23 04:46:28;;;;;;;3.40;2.08;;;14.10;99.90;;;;;;4984772;28;20038;-79
2023/03/23 04:48:58;;;;;;;3.67;1.00;;;14.10;99.90;;;;;;4982707;28;20034;-76
2023/03/23 04:51:32;;;;;;;2.15;0.82;;;14.00;99.90;;;;;;4981996;28;20046;-77
2023/03/23 04:54:10;;;;;;;1.50;0.98;;;14.00;99.90;;;;;;4983383;28;20038;-77
2023/03/23 04:56:41;;;;;;;2.47;1.20;;;14.00;99.90;;;;;;4984840;28;20039;-81
2023/03/23 04:59:13;;;;;;;3.90;1.33;;;13.90;99.90;;;;;;4984030;28;20133;-77
2023/03/23 05:01:47;;;;;;;3.13;1.50;;;13.90;99.90;;;;;;4999263;28;20119;-78
2023/03/23 05:04:17;;;;;;;3.00;1.60;;;13.80;99.90;;;;;;4998785;28;20053;-76
2023/03/23 05:06:52;;;;;;;3.03;1.77;;;13.70;99.90;;;;;;4985132;28;20046;-77
2023/03/23 05:09:23;;;;;;;4.93;1.30;;;13.70;99.90;;;;;;4988693;28;20026;-76
2023/03/23 05:11:53;;;;;;;3.33;1.85;;;13.70;99.90;;;;;;4984751;28;20046;-76
2023/03/23 05:14:21;;;;;;;2.10;1.05;;;13.70;99.90;;;;;;4998854;28;20038;-75
2023/03/23 05:16:56;;;;;;;4.10;1.55;;;13.70;99.90;;;;;;4984175;28;20083;-78
2023/03/23 05:19:23;;;;;;;3.72;1.58;;;13.60;99.90;;;;;;4984955;28;20045;-76
2023/03/23 05:21:51;;;;;;;6.82;2.00;;;13.60;99.90;;;;;;4982629;28;20038;-77
2023/03/23 05:24:17;;;;;;;3.75;1.58;;;13.60;99.90;;;;;;4985996;28;20484;-78
2023/03/23 05:26:44;;;;;;;4.68;1.83;;;13.60;99.90;;;;;;5002009;28;20042;-77
2023/03/23 05:29:17;;;;;;;5.53;2.03;;;13.60;99.90;;;;;;4980163;28;20046;-76
2023/03/23 05:31:55;;;;;;;5.82;2.20;;;13.50;99.90;;;;;;4983382;28;20042;-76
2023/03/23 05:34:21;;;;;;;6.68;2.17;;;13.50;99.90;;;;;;4996487;28;20404;-76
2023/03/23 05:36:53;;;;;;;3.47;1.55;;;13.40;99.90;;;;;;4981680;28;20124;-76
2023/03/23 05:39:34;;;;;;;5.35;1.52;;;13.40;99.90;;;;;;4998604;28;20484;-77
2023/03/23 05:42:23;;;;;;;3.63;1.38;;;13.40;99.90;;;;;;4974672;28;20057;-80
2023/03/23 05:45:08;;;;;;;5.68;1.38;;;13.50;99.90;;;;;;5000958;28;20041;-77
2023/03/23 05:47:36;;;;;;;3.05;1.48;;;13.50;99.90;;;;;;4998461;28;20322;-80
2023/03/23 05:50:09;;;;;;;5.20;1.42;;;13.50;99.90;;;;;;5001736;28;20045;-79
2023/03/23 05:52:37;;;;;;;3.45;1.38;;;13.50;99.90;;;;;;4993156;28;20049;-77
2023/03/23 05:55:08;;;;;;;2.05;1.35;;;13.50;99.90;;;;;;5004766;28;20470;-77
2023/03/23 05:57:36;;;;;;;2.33;1.10;;;13.50;99.90;;;;;;5004685;28;20034;-78
2023/03/23 06:00:14;;;;;;;3.53;1.58;;;13.50;99.90;;;;;;5006647;28;20042;-76
2023/03/23 06:02:45;;;;;;;2.88;1.13;;;13.60;99.90;;;;;;5006964;28;20126;-83
2023/03/23 06:05:16;;;;;;;2.53;1.10;;;13.60;99.90;;;;;;5000607;28;20057;-77
2023/03/23 06:07:47;;;;;;;2.42;1.20;;;13.60;99.90;;;;;;5017607;28;20045;-77
2023/03/23 06:10:14;;;;;;;1.95;1.10;;;13.70;99.90;;;;;;5003630;28;20041;-80
2023/03/23 06:12:44;;;;;;;3.47;2.13;;;13.70;99.90;;;;;;4999988;28;20037;-78
2023/03/23 06:15:21;;;;;;;2.85;0.90;;;13.70;99.90;;;;;;5000172;28;20144;-77
2023/03/23 06:18:00;;;;;;;2.65;1.05;;;13.70;99.90;;;;;;5005911;28;20289;-77
2023/03/23 06:20:35;;;;;;;2.65;1.13;;;13.70;99.90;;;;;;5005628;28;20056;-78
2023/03/23 06:23:14;;;;;;;2.58;1.20;;;13.70;99.90;;;;;;5001102;28;20046;-77
2023/03/23 06:25:42;;;;;;;3.67;2.33;;;13.70;99.90;;;;;;4996407;28;20050;-83
2023/03/23 06:28:10;;;;;;;4.03;1.08;;;13.70;99.90;;;;;;5004354;28;20399;-78
2023/03/23 06:30:44;;;;;;;1.88;1.13;;;13.60;99.90;;;;;;5002593;28;20042;-84
2023/03/23 06:33:11;;;;;;;5.22;1.48;;;13.60;99.90;;;;;;5012048;28;20038;-76
2023/03/23 06:35:57;;;;;;;1.98;0.90;;;13.60;99.90;;;;;;4998506;28;20049;-76
2023/03/23 06:38:45;;;;;;;3.78;0.90;;;13.60;99.90;;;;;;4993906;28;20038;-77
2023/03/23 06:41:12;;;;;;;2.17;1.13;;;13.80;99.90;;;;;;4998584;28;20046;-77
2023/03/23 06:43:39;;;;;;;5.95;1.33;;;13.70;99.90;;;;;;5008286;28;20030;-77
2023/03/23 06:46:19;;;;;;;3.00;0.82;;;13.80;99.90;;;;;;5005985;28;20054;-77
2023/03/23 06:49:16;;;;;;;3.92;1.10;;;13.80;99.90;;;;;;4997225;28;20491;-77
2023/03/23 06:51:49;;;;;;;3.63;1.23;;;13.80;99.90;;;;;;5002186;28;20049;-76
2023/03/23 06:54:16;;;;;;;2.00;0.90;;;13.70;99.90;;;;;;5005088;28;20049;-78
2023/03/23 06:56:44;;;;;;;3.30;0.80;;;13.80;99.90;;;;;;5004270;28;20038;-76
2023/03/23 06:59:13;;;;;;;4.68;1.60;;;13.80;99.90;;;;;;5000214;28;20391;-77
2023/03/23 07:01:40;;;;;;;2.78;1.52;;;13.80;99.90;;;;;;5019287;28;20394;-76
2023/03/23 07:04:06;;;;;;;4.55;2.10;;;13.80;99.90;;;;;;5002253;28;20046;-77
2023/03/23 07:06:52;;;;;;;2.97;1.48;;;13.80;99.90;;;;;;5000207;28;20053;-77
2023/03/23 07:09:18;;;;;;;7.80;1.65;;;13.70;99.90;;;;;;4985530;28;20046;-77
2023/03/23 07:11:47;;;;;;;4.70;1.20;;;13.70;99.90;;;;;;5003825;28;20068;-77
2023/03/23 07:14:22;;;;;;;3.95;1.10;;;13.80;99.90;;;;;;5003625;28;20042;-77
2023/03/23 07:16:50;;;;;;;2.65;0.82;;;13.90;99.90;;;;;;5001225;28;20042;-77
2023/03/23 07:19:16;;;;;;;1.38;0.63;;;13.90;99.90;;;;;;4996343;28;20039;-77
2023/03/23 07:21:45;;;;;;;8.48;1.50;;;13.90;99.90;;;;;;5001840;28;20479;-85
2023/03/23 07:24:16;;;;;;;1.10;0.60;;;13.80;99.90;;;;;;5011754;28;20498;-76
2023/03/23 07:27:01;;;;;;;2.00;0.77;;;13.80;99.90;;;;;;5014624;28;20049;-77
2023/03/23 07:29:28;;;;;;;1.55;0.55;;;13.80;99.90;;;;;;5010715;28;20046;-77
2023/03/23 07:32:06;;;;;;;3.55;0.60;;;13.80;99.90;;;;;;5016417;28;20073;-80
2023/03/23 07:34:32;;;;;;;1.42;0.80;;;13.70;99.90;;;;;;5007540;28;20494;-78
2023/03/23 07:37:13;;;;;;;3.78;0.70;;;13.70;99.90;;;;;;4993497;28;20514;-78
2023/03/23 07:39:42;;;;;;;1.75;0.60;;;13.70;99.90;;;;;;4992981;28;20050;-78
2023/03/23 07:42:10;;;;;;;2.58;0.70;;;13.70;99.90;;;;;;5007286;28;20047;-77
2023/03/23 07:44:47;;;;;;;2.58;0.77;;;13.60;99.90;;;;;;4999523;28;20046;-79
2023/03/23 07:47:14;;;;;;;1.63;0.60;;;13.60;99.90;;;;;;5026001;28;20395;-80
2023/03/23 07:49:40;;;;;;;4.78;0.55;;;13.60;99.90;;;;;;5026005;28;20033;-79
2023/03/23 07:52:15;;;;;;;3.60;0.50;;;13.50;99.90;;;;;;5028890;28;20055;-83
2023/03/23 07:54:42;;;;;;;1.35;0.55;;;13.50;99.90;;;;;;5015345;28;20049;-78
2023/03/23 07:57:18;;;;;;;1.67;0.60;;;13.50;99.90;;;;;;5008191;28;20045;-78
2023/03/23 07:59:50;;;;;;;2.42;0.52;;;13.50;99.90;;;;;;5003796;28;20049;-77
2023/03/23 08:02:16;;;;;;;2.67;0.70;;;13.50;99.90;;;;;;5020374;28;20042;-75
2023/03/23 08:04:56;;;;;;;1.30;0.43;;;13.50;99.90;;;;;;4982339;28;20460;-75
2023/03/23 08:07:22;;;;;;;0.70;0.47;;;13.50;99.90;;;;;;5004059;28;20057;-75
2023/03/23 08:10:10;;;;;;;1.48;0.50;;;13.50;99.90;;;;;;5002106;28;20061;-75
2023/03/23 08:12:56;;;;;;;2.83;0.60;;;13.50;99.90;;;;;;5007484;28;20045;-77
2023/03/23 08:15:41;;;;;;;3.20;1.13;;;13.50;99.90;;;;;;5005644;28;20114;-76
2023/03/23 08:18:23;;;;;;;4.22;0.70;;;13.40;99.90;;;;;;5006157;28;20046;-76
2023/03/23 08:21:15;;;;;;;1.05;0.60;;;13.40;99.90;;;;;;5000749;28;20466;-76
2023/03/23 08:24:11;;;;;;;3.58;0.75;;;13.40;99.90;;;;;;5002874;28;20371;-76
2023/03/23 08:26:45;;;;;;;1.65;0.70;;;13.40;99.90;;;;;;4994787;28;20042;-76
2023/03/23 08:29:45;;;;;;;;;;;13.30;99.90;;;;;;4983644;28;20410;-76
2023/03/23 08:32:30;;;;;;;1.73;0.60;;;13.30;99.90;;;;;;4991542;28;19910;-77
2023/03/23 08:35:29;;;;;;;2.55;0.88;;;13.30;99.90;;;;;;4999120;28;20064;-77
2023/03/23 08:38:11;;;;;;;2.50;1.02;;;13.30;99.90;;;;;;5002480;28;20046;-76
2023/03/23 08:41:05;;;;;;;4.57;0.88;;;13.40;99.90;;;;;;5002175;28;20047;-77
2023/03/23 08:44:10;;;;;;;2.40;1.13;;;13.30;99.90;;;;;;4988372;28;20053;-76
2023/03/23 08:46:56;;;;;;;2.63;1.25;;;13.40;99.90;;;;;;5004200;28;20395;-76
2023/03/23 08:49:45;;;;;;;2.22;0.95;;;13.40;99.90;;;;;;5005303;28;20395;-77
2023/03/23 08:52:44;;;;;;;1.77;1.02;;;13.40;99.90;;;;;;5001323;28;20402;-76
2023/03/23 08:55:24;;;;;;;1.70;1.02;;;13.30;99.90;;;;;;5002998;28;20049;-78
2023/03/23 08:58:09;;;;;;;1.85;0.90;;;13.30;1.00;;;;;;5001326;28;20053;-77
2023/03/23 09:00:54;;;;;;;1.95;1.20;;;13.30;1.00;;;;;;5007559;28;20042;-77
2023/03/23 09:03:39;;;;;;;3.03;1.08;;;13.40;99.90;;;;;;5005282;28;20494;-76
2023/03/23 09:06:26;;;;;;;2.20;0.70;;;13.40;99.90;;;;;;5005285;28;20056;-77
2023/03/23 09:08:55;;;;;;;3.08;0.68;;;13.50;99.90;;;;;;5005680;28;20349;-78
2023/03/23 09:11:21;;;;;;;2.22;0.80;;;13.50;99.90;;;;;;5007610;28;20026;-77
2023/03/23 09:13:47;;;;;;;2.60;0.75;;;13.60;99.90;;;;;;5003738;28;20030;-73
2023/03/23 09:16:14;;;;;;;2.42;0.80;;;13.70;99.90;;;;;;5009513;28;20038;-77
2023/03/23 09:18:40;;;;;;;2.83;1.10;;;13.80;99.90;;;;;;5006017;28;20030;-76
2023/03/23 09:21:06;;;;;;;3.55;0.90;;;13.80;99.90;;;;;;5003127;28;20372;-76
2023/03/23 09:23:33;;;;;;;2.78;1.10;;;13.90;99.90;;;;;;4998427;28;20034;-76
2023/03/23 09:26:01;;;;;;;2.08;0.85;;;13.90;99.90;;;;;;5004043;28;20467;-76
2023/03/23 09:28:28;;;;;;;1.92;0.50;;;13.90;99.90;;;;;;5007358;28;20045;-76
2023/03/23 09:30:58;;;;;;;1.48;0.50;;;14.00;99.90;;;;;;5002551;28;20041;-76
2023/03/23 09:33:25;;;;;;;3.83;0.57;;;13.90;99.90;;;;;;5005783;28;20372;-76
2023/03/23 09:35:51;;;;;;;1.10;0.60;;;13.90;99.90;;;;;;5002304;28;20038;-73
2023/03/23 09:38:19;;;;;;;0.77;0.35;;;14.00;99.90;;;;;;5001600;28;20043;-75
2023/03/23 09:40:53;;;;;;;3.53;0.50;;;14.10;99.90;;;;;;5004882;28;20376;-75
2023/03/23 09:43:40;;;;;;;1.35;0.60;;;14.00;99.90;;;;;;5017096;28;20054;-74
2023/03/23 09:46:25;;;;;;;1.77;0.60;;;14.10;99.90;;;;;;4998476;28;20054;-75
2023/03/23 09:48:56;;;;;;;1.10;0.52;;;14.10;99.90;;;;;;5001018;28;20027;-76
2023/03/23 09:51:32;;;;;;;1.33;0.40;;;14.00;99.90;;;;;;5001892;28;20423;-76
2023/03/23 09:54:14;;;;;;;1.13;0.50;;;13.80;99.90;;;;;;5005052;28;20034;-73
2023/03/23 09:56:40;;;;;;;0.95;0.38;;;13.50;99.90;;;;;;5005900;28;20049;-77
2023/03/23 09:59:33;;;;;;;2.40;0.70;;;13.40;99.90;;;;;;5007496;28;20411;-77
2023/03/23 10:02:20;;;;;;;1.63;0.63;;;13.40;1.00;;;;;;4998153;28;20120;-77
2023/03/23 10:04:54;;;;;;;1.13;0.70;;;13.40;1.00;;;;;;5002415;28;20038;-77
2023/03/23 10:07:26;;;;;;;3.70;0.75;;;13.40;1.00;;;;;;5003070;28;20042;-77
2023/03/23 10:09:57;;;;;;;1.70;0.55;;;13.50;1.00;;;;;;5006566;28;20030;-78
2023/03/23 10:12:38;;;;;;;1.67;0.95;;;13.60;1.00;;;;;;5004672;28;20057;-76
2023/03/23 10:15:16;;;;;;;1.65;0.70;;;13.60;99.90;;;;;;4993554;28;20518;-77
2023/03/23 10:17:58;;;;;;;2.00;1.00;;;13.60;99.90;;;;;;4999119;28;20471;-77
2023/03/23 10:20:33;;;;;;;2.88;0.52;;;13.70;99.90;;;;;;5001384;28;20140;-77
2023/03/23 10:23:23;;;;;;;3.38;0.77;;;13.80;99.90;;;;;;5006330;28;20494;-77
2023/03/23 10:26:13;;;;;;;2.67;0.90;;;13.90;99.90;;;;;;5002923;28;20034;-78
2023/03/23 10:29:05;;;;;;;1.85;0.65;;;14.10;99.90;;;;;;5001054;28;20053;-76
2023/03/23 10:31:37;;;;;;;4.18;1.10;;;14.30;99.90;;;;;;5001410;28;20406;-77
2023/03/23 10:34:21;;;;;;;3.97;1.15;;;14.30;99.90;;;;;;5003721;28;20026;-76
2023/03/23 10:37:12;;;;;;;2.63;1.00;;;14.20;99.90;;;;;;4998380;28;20034;-77
2023/03/23 10:39:46;;;;;;;1.83;0.90;;;14.20;99.90;;;;;;5005015;28;20043;-76
2023/03/23 10:42:25;;;;;;;2.20;0.52;;;14.30;99.90;;;;;;5005102;28;20030;-77
2023/03/23 10:44:52;;;;;;;2.05;0.70;;;14.40;99.90;;;;;;4978061;28;20030;-76
2023/03/23 10:47:18;;;;;;;3.05;0.88;;;14.50;99.90;;;;;;5003012;28;20041;-77
2023/03/23 10:49:46;;;;;;;1.90;0.85;;;14.70;99.90;;;;;;4998912;28;20037;-77
2023/03/23 10:52:38;;;;;;;1.98;0.88;;;14.70;99.90;;;;;;5005164;28;20045;-78
2023/03/23 10:55:22;;;;;;;3.00;1.58;;;14.60;99.90;;;;;;5000229;28;20053;-77
2023/03/23 10:58:04;;;;;;;1.70;0.85;;;14.50;99.90;;;;;;5004350;28;20034;-78
2023/03/23 11:00:31;;;;;;;1.75;0.85;;;14.50;99.90;;;;;;5001568;28;20033;-77
2023/03/23 11:03:26;;;;;;;3.03;0.98;;;14.40;99.90;;;;;;5008410;28;20462;-79
2023/03/23 11:05:57;;;;;;;0.98;0.50;;;14.20;99.90;;;;;;5010123;28;20387;-76
2023/03/23 11:08:33;;;;;;;2.72;1.02;;;14.20;99.90;;;;;;5007966;28;20038;-77
2023/03/23 11:11:15;;;;;;;1.67;0.80;;;14.20;99.90;;;;;;4988616;28;20042;-78
2023/03/23 11:13:47;;;;;;;1.15;0.50;;;14.10;99.90;;;;;;4992261;28;20045;-77
2023/03/23 11:16:27;;;;;;;2.90;0.88;;;14.10;99.90;;;;;;5006939;28;20042;-77
2023/03/23 11:18:58;;;;;;;0.68;0.40;;;14.20;99.90;;;;;;5005018;28;20044;-77
2023/03/23 11:21:26;;;;;;;1.48;0.65;;;14.10;99.90;;;;;;5004804;28;20380;-76
2023/03/23 11:23:57;;;;;;;1.35;0.45;;;14.00;99.90;;;;;;4997642;28;20368;-76
2023/03/23 11:26:33;;;;;;;5.55;1.08;;;13.90;99.90;;;;;;4991634;28;20078;-79
2023/03/23 11:29:04;;;;;;;1.88;0.70;;;13.90;1.00;;;;;;5008146;28;20050;-76
2023/03/23 11:31:41;;;;;;;2.72;1.05;;;14.00;1.00;;;;;;4990302;28;20045;-75
2023/03/23 11:34:17;;;;;;;2.45;0.90;;;14.10;99.90;;;;;;5005376;28;20053;-76
2023/03/23 11:36:58;;;;;;;4.30;1.70;;;14.20;99.90;;;;;;5006442;28;20038;-76
2023/03/23 11:39:30;;;;;;;2.65;0.90;;;14.40;99.90;;;;;;5005387;28;20030;-78
2023/03/23 11:42:11;;;;;;;3.65;0.90;;;14.60;99.90;;;;;;5009075;28;20480;-79
2023/03/23 11:44:44;;;;;;;2.08;1.27;;;14.70;99.90;;;;;;5000430;28;20053;-77
2023/03/23 11:47:32;;;;;;;1.58;0.60;;;14.60;99.90;;;;;;5011377;28;20038;-77
2023/03/23 11:50:15;;;;;;;1.48;0.52;;;14.80;99.90;;;;;;5006687;28;20383;-77
2023/03/23 11:53:03;;;;;;;1.92;0.50;;;15.00;99.90;;;;;;5006770;28;20030;-77
2023/03/23 11:55:47;;;;;;;3.55;1.25;;;14.90;99.90;;;;;;5004380;28;20031;-77
2023/03/23 11:58:16;;;;;;;4.72;0.88;;;14.80;99.90;;;;;;5006621;28;20034;-76
2023/03/23 12:00:56;;;;;;;2.85;0.82;;;14.80;99.90;;;;;;5007554;28;20034;-76
2023/03/23 12:03:46;;;;;;;2.20;0.40;;;14.80;99.90;;;;;;4987245;28;20040;-77
2023/03/23 12:06:19;;;;;;;0.90;0.50;;;14.90;99.90;;;;;;5004236;28;20050;-77
2023/03/23 12:09:07;;;;;;;1.40;0.70;;;15.10;99.90;;;;;;4993608;28;20052;-76
2023/03/23 12:11:52;;;;;;;1.15;0.57;;;15.10;99.90;;;;;;5009418;28;20037;-77
2023/03/23 12:14:27;;;;;;;1.45;0.80;;;15.10;99.90;;;;;;5008319;28;20046;-76
2023/03/23 12:17:04;;;;;;;1.83;0.77;;;15.10;99.90;;;;;;5008657;28;20036;-75
2023/03/23 12:20:10;;;;;;;2.90;0.70;;;15.00;99.90;;;;;;5001611;28;20049;-77
2023/03/23 12:22:44;;;;;;;2.67;1.13;;;15.10;99.90;;;;;;4976096;28;20049;-76
2023/03/23 12:25:29;;;;;;;1.73;1.00;;;15.10;99.90;;;;;;4977325;28;20561;-79
2023/03/23 12:27:59;;;;;;;1.52;0.60;;;15.30;99.90;;;;;;5005429;28;20479;-80
2023/03/23 12:30:43;;;;;;;3.35;1.10;;;15.40;99.90;;;;;;5002035;28;20035;-79
2023/03/23 12:33:26;;;;;;;1.75;0.63;;;15.40;99.90;;;;;;5000906;28;20045;-79
2023/03/23 12:36:03;;;;;;;1.58;0.82;;;15.30;99.90;;;;;;5006054;28;20026;-77
2023/03/23 12:38:50;;;;;;;1.83;1.13;;;15.30;99.90;;;;;;5000217;28;20031;-75
2023/03/23 12:41:31;;;;;;;2.80;0.82;;;15.40;99.90;;;;;;5003792;28;20056;-78
2023/03/23 12:43:59;;;;;;;;;;;15.50;99.90;;;;;;4997470;28;20045;-77
2023/03/23 12:47:00;;;;;;;1.05;0.43;;;15.40;99.90;;;;;;5007629;28;19913;-77
2023/03/23 12:49:56;;;;;;;0.80;0.30;;;15.30;99.90;;;;;;5002168;28;20042;-76
2023/03/23 12:52:42;;;;;;;1.42;0.75;;;15.20;99.90;;;;;;4981098;28;20045;-77
2023/03/23 12:55:36;;;;;;;5.43;0.90;;;15.20;99.90;;;;;;5005006;28;20038;-77
2023/03/23 12:58:09;;;;;;;3.78;1.77;;;15.60;99.90;;;;;;4983001;28;20494;-80
2023/03/23 13:01:14;;;;;;;1.73;0.90;;;16.10;99.90;;;;;;4998171;28;20036;-77
2023/03/23 13:04:12;;;;;;;3.33;1.27;;;16.20;99.90;;;;;;4955114;28;20057;-76
2023/03/23 13:06:44;;;;;;;2.28;1.73;;;16.20;99.90;;;;;;4957573;28;20040;-76
2023/03/23 13:09:21;;;;;;;3.05;2.13;;;16.00;99.90;;;;;;4997149;28;20053;-75
2023/03/23 13:11:50;;;;;;;2.72;0.68;;;15.70;99.90;;;;;;5003052;28;20045;-76
2023/03/23 13:14:40;;;;;;;0.85;0.45;;;15.50;99.90;;;;;;5008849;28;20039;-76
2023/03/23 13:17:26;;;;;;;0.98;0.60;;;15.50;99.90;;;;;;4998452;28;20034;-76
2023/03/23 13:20:19;;;;;;;1.27;0.90;;;15.50;99.90;;;;;;4991801;28;20034;-76
2023/03/23 13:22:52;;;;;;;1.13;0.70;;;15.40;99.90;;;;;;4996386;28;20476;-79
2023/03/23 13:25:59;;;;;;;57.67;32.40;;;15.30;99.90;;;;;;4997353;28;20045;-75
2023/03/23 13:28:33;;;;;;;3.13;2.15;;;15.20;99.90;;;;;;4966601;28;20046;-75